AirNav   Everest Fuels
 
 1423 users online  

MO85 Wells Airport
Marshfield, Missouri, USA

GOING TO MARSHFIELD?


FAA INFORMATION EFFECTIVE 01 DECEMBER 2022

Location

FAA Identifier: MO85
Lat/Long: 37-15-56.7300N 092-50-13.8950W
37-15.945500N 092-50.231583W
37.2657583,-92.8371931
(estimated)
Elevation: 1530 ft. / 466 m (estimated)
Variation: 02E (2000)
From city: 6 miles SE of MARSHFIELD, MO
Time zone: UTC -6 (UTC -5 during Daylight Saving Time)
Zip code: 65706

Airport Operations

Airport use: Private use. Permission required prior to landing
Activation date: 12/2000
Control tower: no
ARTCC: KANSAS CITY CENTER
FSS: COLUMBIA FLIGHT SERVICE STATION
Attendance: UNATNDD
Wind indicator: yes
Segmented circle: no

Nearby radio navigation aids

VOR radial/distance  VOR name  Freq  Var
DGDr006/14.7DOGWOOD VORTAC109.4001E
SGFr099/24.3SPRINGFIELD VORTAC116.9004E

Airport Services

Runway Information

Runway 18/36

Dimensions: 2400 x 60 ft. / 732 x 18 m
Surface: turf
RUNWAY 18  RUNWAY 36
Latitude: 37-16.142667N37-15.748333N
Longitude: 092-50.213667W092-50.249500W
Elevation: 1521.0 ft.1492.0 ft.
Traffic pattern: leftleft
Obstructions: 80 ft. trees, 200 ft. from runway80 ft. trees, 200 ft. from runway

Airport Ownership and Management from official FAA records

Ownership: Privately-owned
Owner: LARRY WELLS
2411 LONG STATE HIGHWAY P
MARSHFIELD, MO 65706
Phone 417-859-6423
Manager: LARRY WELLS
2411 LONG STATE HIGHWAY P
MARSHFIELD, MO 65706
Phone 417-859-6423

Airport Operational Statistics

Aircraft based on the field: 1
Single engine airplanes: 1
    

Additional Remarks

FOR CD CTC SPRINGFIELD APCH AT 417-868-5620/5619.

Instrument Procedures

There are no published instrument procedures at MO85.

Some nearby airports with instrument procedures:

KAOV - Ava Bill Martin Memorial Airport (19 nm SE)
3DW - Downtown Airport (20 nm W)
KLBO - Floyd W Jones Lebanon Airport (25 nm N)
KSGF - Springfield-Branson National Airport (26 nm W)
1MO - Mountain Grove Memorial Airport (27 nm E)
 
Loc | Ops | Rwys | IFR | FBO | Links
Com | Nav | Svcs | Stats | Notes

Branson Jet Center
AirBoss

 
Area around MO85 (Wells Airport)
 
Road maps at: MapQuest Bing Google
 
Aerial photo
WARNING: Photo may not be current or correct
Aerial photo of MO85 (Wells Airport)
Do you have a better or more recent aerial photo of Wells Airport that you would like to share? If so, please send us your photo.

 
Sectional chart

 
Airport distance calculator
Flying to Wells Airport? Find the distance to fly.

From to MO85

Sunrise and sunset
Times for 02-Dec-2022
 Local
(UTC-6)
 Zulu
(UTC)
Morning civil twilight06:4012:40
Sunrise07:0913:09
Sunset16:5322:53
Evening civil twilight17:2223:22

Current date and time
Zulu (UTC)  02-Dec-2022 17:11:39
Local (UTC-6)  02-Dec-2022 11:11:39
 
METAR
KLBO 
25nm N 
021655Z AUTO 19018G29KT 10SM OVC020 12/05 A2993 RMK AO2
KSGF 
26nm W 
021652Z 18018G27KT 10SM OVC017 12/08 A2992 RMK AO2 PK WND 19030/1632 SLP131 T01220078
KOZS 
43nm N 
021655Z AUTO 19014G28KT 10SM OVC023 14/07 A2990 RMK AO2
KFWB 
43nm SW 
021655Z AUTO 20008G15KT 120V280 10SM OVC015 13/09 A2999 RMK AO2
KTBN 
44nm NE 
021655Z AUTO 17016G25KT 10SM OVC022 12/03 A2995 RMK AO2 PK WND 18027/01 CIG 021 RWY33 SLP147 T01150030 $
KBBG 
47nm S 
021645Z 17012G18KT 10SM OVC017 13/09 A3001
TAF
KSGF 
26nm W 
021120Z 0212/0312 18018G25KT P6SM OVC023 WS020/22055KT FM021800 18026G39KT P6SM BKN018 WS020/22060KT FM030100 22022G30KT P6SM SCT018 FM030600 33016G22KT P6SM SCT250
NOTAMs
Click for the latest NOTAMs
NOTAMs are issued by the DoD/FAA and will open in a separate window not controlled by AirNav.

 

 
 

Would you like to see your business listed on this page?

 If your business provides an interesting product or service to pilots, flight crews, aircraft, or users of the Wells Airport, you should consider listing it here.  To start the listing process, click on the button below
 
Add a business
 

Other Pages about Wells Airport

Update a link
 
Copyright © AirNav, LLC. All rights reserved. Privacy Policy  Contact